Time;durP1;ratioP1;P1;durP2;ratioP2;P2;SDS_P1;SDS_P2;PMS_P1;PMS_P2;Temp;Humidity;BMP_temperature;BMP_pressure;BME280_temperature;BME280_humidity;BME280_pressure;Samples;Min_cycle;Max_cycle;Signal;HPM_P1;HPM_P2
2022/11/25 00:01:16;;;;;;;26.23;11.48;;;;;;;;;;5016404;28;20022;-65
2022/11/25 00:03:42;;;;;;;32.35;15.85;;;;;;;;;;5016129;28;20489;-66
2022/11/25 00:06:08;;;;;;;27.65;13.52;;;;;;;;;;5034467;28;20072;-65
2022/11/25 00:08:34;;;;;;;23.30;11.57;;;;;;;;;;5034566;28;20033;-64
2022/11/25 00:11:01;;;;;;;27.65;12.32;;;;;;;;;;5027200;28;20080;-64
2022/11/25 00:13:27;;;;;;;23.88;12.25;;;;;;;;;;5014219;28;20026;-65
2022/11/25 00:15:53;;;;;;;20.58;11.57;;;;;;;;;;5013658;28;20029;-65
2022/11/25 00:18:20;;;;;;;23.50;11.07;;;;;;;;;;5014546;28;20498;-65
2022/11/25 00:20:46;;;;;;;25.00;11.50;;;;;;;;;;5014569;28;20021;-65
2022/11/25 00:23:12;;;;;;;28.70;11.40;;;;;;;;;;5023492;28;20029;-66
2022/11/25 00:25:38;;;;;;;26.55;11.18;;;;;;;;;;5033230;28;20504;-65
2022/11/25 00:28:04;;;;;;;24.23;11.82;;;;;;;;;;5033177;28;20027;-65
2022/11/25 00:30:30;;;;;;;25.52;12.00;;;;;;;;;;5022462;28;20045;-66
2022/11/25 00:32:56;;;;;;;23.83;10.23;;;;;;;;;;5014560;28;20053;-67
2022/11/25 00:35:22;;;;;;;21.05;10.05;;;;;;;;;;5013129;28;20682;-65
2022/11/25 00:37:48;;;;;;;23.25;10.20;;;;;;;;;;5014515;28;20029;-65
2022/11/25 00:40:14;;;;;;;18.50;8.80;;;;;;;;;;5014363;28;20475;-66
2022/11/25 00:45:24;;;;;;;21.15;9.70;;;;;;;;;;5034620;28;20125;-66
2022/11/25 00:47:52;;;;;;;29.95;10.07;;;;;;;;;;5032481;28;20061;-65
2022/11/25 00:50:18;;;;;;;22.98;10.13;;;;;;;;;;5034160;28;20034;-64
2022/11/25 00:52:44;;;;;;;25.00;9.85;;;;;;;;;;5032515;28;20375;-64
2022/11/25 00:55:10;;;;;;;28.00;9.35;;;;;;;;;;5033731;28;20026;-65
2022/11/25 00:57:36;;;;;;;21.83;9.25;;;;;;;;;;5033758;28;20018;-65
2022/11/25 01:00:03;;;;;;;25.15;9.77;;;;;;;;;;5033483;28;20033;-65
2022/11/25 01:02:29;;;;;;;20.98;9.48;;;;;;;;;;5032852;28;20026;-66
2022/11/25 01:04:55;;;;;;;23.13;10.63;;;;;;;;;;5033134;28;20108;-65
2022/11/25 01:07:21;;;;;;;23.45;9.63;;;;;;;;;;5032492;28;20034;-65
2022/11/25 01:09:48;;;;;;;25.67;9.63;;;;;;;;;;5032360;28;20075;-64
2022/11/25 01:12:14;;;;;;;23.27;9.48;;;;;;;;;;5023511;28;20017;-65
2022/11/25 01:14:40;;;;;;;23.95;9.38;;;;;;;;;;5013333;28;20033;-65
2022/11/25 01:17:06;;;;;;;20.45;9.30;;;;;;;;;;5012376;28;20026;-64
2022/11/25 01:19:32;;;;;;;23.85;9.63;;;;;;;;;;5013003;28;20625;-63
2022/11/25 01:21:58;;;;;;;19.65;9.23;;;;;;;;;;5013588;28;20018;-66
2022/11/25 01:24:25;;;;;;;21.08;9.10;;;;;;;;;;5017632;28;20022;-64
2022/11/25 01:26:53;;;;;;;21.45;9.50;;;;;;;;;;5018612;28;20030;-65
2022/11/25 01:29:19;;;;;;;21.77;9.32;;;;;;;;;;5033711;28;20037;-65
2022/11/25 01:31:45;;;;;;;19.55;9.23;;;;;;;;;;5033133;28;20025;-66
2022/11/25 01:34:19;;;;;;;19.02;8.90;;;;;;;;;;5032962;28;20024;-65
2022/11/25 01:36:45;;;;;;;20.90;9.70;;;;;;;;;;5032730;28;20037;-65
2022/11/25 01:39:24;;;;;;;21.63;9.27;;;;;;;;;;5032980;28;20081;-65
2022/11/25 01:41:50;;;;;;;24.67;10.07;;;;;;;;;;5032670;28;20110;-65
2022/11/25 01:44:18;;;;;;;21.92;9.27;;;;;;;;;;5031571;28;20053;-65
2022/11/25 01:46:44;;;;;;;22.85;9.93;;;;;;;;;;5031682;28;20025;-63
2022/11/25 01:49:13;;;;;;;39.28;11.93;;;;;;;;;;5032515;28;20039;-65
2022/11/25 01:51:41;;;;;;;23.33;9.50;;;;;;;;;;5031520;28;20033;-65
2022/11/25 01:54:10;;;;;;;23.20;8.90;;;;;;;;;;5032553;28;20029;-64
2022/11/25 01:56:38;;;;;;;18.42;9.45;;;;;;;;;;5031188;28;20029;-66
2022/11/25 01:59:04;;;;;;;;;;;;;;;;;;5033187;28;20496;-66
2022/11/25 02:01:30;;;;;;;18.67;8.60;;;;;;;;;;5031381;28;19905;-65
2022/11/25 02:03:58;;;;;;;18.05;9.10;;;;;;;;;;5032346;28;20045;-65
2022/11/25 02:06:37;;;;;;;22.58;10.80;;;;;;;;;;5032662;28;20027;-64
2022/11/25 02:09:04;;;;;;;20.10;8.80;;;;;;;;;;5032677;28;20037;-65
2022/11/25 02:11:30;;;;;;;18.70;8.52;;;;;;;;;;5023063;28;20121;-66
2022/11/25 02:13:57;;;;;;;19.75;8.50;;;;;;;;;;5032215;28;20037;-65
2022/11/25 02:16:23;;;;;;;20.50;9.05;;;;;;;;;;5032965;28;20060;-65
2022/11/25 02:18:49;;;;;;;27.52;9.45;;;;;;;;;;5031776;28;20052;-66
2022/11/25 02:21:22;;;;;;;23.50;9.00;;;;;;;;;;5031695;28;20025;-66
2022/11/25 02:23:48;;;;;;;18.25;8.52;;;;;;;;;;5032271;28;20029;-64
2022/11/25 02:26:14;;;;;;;18.38;8.82;;;;;;;;;;5031332;28;20028;-65
2022/11/25 02:28:41;;;;;;;20.88;8.90;;;;;;;;;;5032513;28;20029;-65
2022/11/25 02:31:07;;;;;;;21.50;8.98;;;;;;;;;;5032041;28;20033;-64
2022/11/25 02:33:33;;;;;;;18.98;8.60;;;;;;;;;;5031475;28;20021;-64
2022/11/25 02:36:01;;;;;;;20.88;9.27;;;;;;;;;;5032939;28;20201;-65
2022/11/25 02:38:42;;;;;;;21.80;9.97;;;;;;;;;;5033091;28;20113;-64
2022/11/25 02:41:14;;;;;;;19.95;8.75;;;;;;;;;;5028112;28;20435;-64
2022/11/25 02:43:40;;;;;;;20.23;9.32;;;;;;;;;;5013245;28;20037;-64
2022/11/25 02:46:08;;;;;;;17.60;8.57;;;;;;;;;;5012219;28;20037;-65
2022/11/25 02:48:35;;;;;;;20.23;8.90;;;;;;;;;;5012324;28;20045;-65
2022/11/25 02:51:01;;;;;;;21.42;9.00;;;;;;;;;;5011267;28;20040;-65
2022/11/25 02:53:27;;;;;;;23.42;8.98;;;;;;;;;;5012360;28;20046;-64
2022/11/25 02:55:53;;;;;;;20.30;9.02;;;;;;;;;;5011239;28;20489;-64
2022/11/25 02:58:19;;;;;;;22.30;9.45;;;;;;;;;;5010891;28;20014;-65
2022/11/25 03:00:46;;;;;;;21.40;10.43;;;;;;;;;;5012304;28;20041;-65
2022/11/25 03:03:12;;;;;;;19.55;8.85;;;;;;;;;;5012119;28;20549;-65
2022/11/25 03:05:39;;;;;;;20.08;8.70;;;;;;;;;;5012344;28;20116;-65
2022/11/25 03:08:05;;;;;;;16.88;9.73;;;;;;;;;;5011890;28;20615;-64
2022/11/25 03:10:32;;;;;;;17.63;8.48;;;;;;;;;;5012433;28;20030;-64
2022/11/25 03:12:58;;;;;;;24.25;9.07;;;;;;;;;;5012004;28;20041;-65
2022/11/25 03:15:24;;;;;;;22.08;9.10;;;;;;;;;;5012278;28;20026;-64
2022/11/25 03:17:50;;;;;;;23.33;8.88;;;;;;;;;;5012571;28;20056;-64
2022/11/25 03:20:17;;;;;;;22.10;9.30;;;;;;;;;;5012409;28;20030;-64
2022/11/25 03:22:43;;;;;;;25.65;9.15;;;;;;;;;;5012500;28;20034;-62
2022/11/25 03:25:10;;;;;;;19.02;9.05;;;;;;;;;;5013598;28;20382;-67
2022/11/25 03:27:37;;;;;;;21.10;9.43;;;;;;;;;;5015868;28;20366;-65
2022/11/25 03:30:04;;;;;;;23.10;10.02;;;;;;;;;;5015368;28;20113;-65
2022/11/25 03:32:30;;;;;;;22.02;8.82;;;;;;;;;;5015330;28;20397;-64
2022/11/25 03:34:56;;;;;;;22.70;9.10;;;;;;;;;;5015391;28;20030;-65
2022/11/25 03:37:22;;;;;;;22.77;8.68;;;;;;;;;;5015409;28;20025;-65
2022/11/25 03:39:48;;;;;;;23.60;9.38;;;;;;;;;;5014849;28;20045;-64
2022/11/25 03:42:14;;;;;;;20.48;9.55;;;;;;;;;;5020603;28;20464;-64
2022/11/25 03:44:40;;;;;;;18.05;9.05;;;;;;;;;;5018793;28;20026;-64
2022/11/25 03:47:06;;;;;;;16.60;8.88;;;;;;;;;;5018864;28;20459;-64
2022/11/25 03:49:32;;;;;;;19.98;9.30;;;;;;;;;;5015171;28;20120;-65
2022/11/25 03:51:58;;;;;;;21.13;9.00;;;;;;;;;;5014189;28;20565;-65
2022/11/25 03:54:24;;;;;;;17.17;8.25;;;;;;;;;;5013682;28;20021;-64
2022/11/25 03:56:50;;;;;;;21.83;9.55;;;;;;;;;;5015130;28;20398;-64
2022/11/25 03:59:16;;;;;;;23.23;10.40;;;;;;;;;;5013449;28;20117;-65
2022/11/25 04:01:42;;;;;;;17.25;8.95;;;;;;;;;;5014730;28;20117;-66
2022/11/25 04:04:08;;;;;;;18.77;9.43;;;;;;;;;;5013720;28;20128;-64
2022/11/25 04:06:34;;;;;;;23.85;9.60;;;;;;;;;;5013772;28;20029;-64
2022/11/25 04:09:00;;;;;;;24.13;10.38;;;;;;;;;;5013443;28;20123;-65
2022/11/25 04:12:45;;;;;;;19.48;10.60;;;;;;;;;;5023666;28;20486;-65
2022/11/25 04:14:13;;;;;;;26.30;10.50;;;;;;;;;;5034036;28;20034;-64
2022/11/25 04:16:39;;;;;;;21.73;10.98;;;;;;;;;;5034466;28;20417;-65
2022/11/25 04:19:05;;;;;;;22.70;10.35;;;;;;;;;;5032952;28;20026;-63
2022/11/25 04:21:31;;;;;;;19.23;11.45;;;;;;;;;;5033090;28;20366;-64
2022/11/25 04:23:57;;;;;;;19.05;11.05;;;;;;;;;;5034250;28;20048;-64
2022/11/25 04:26:23;;;;;;;22.83;11.63;;;;;;;;;;5033201;28;20040;-65
2022/11/25 04:28:49;;;;;;;22.52;11.65;;;;;;;;;;5034190;28;20072;-64
2022/11/25 04:31:15;;;;;;;21.85;11.02;;;;;;;;;;5033114;28;20111;-64
2022/11/25 04:33:40;;;;;;;20.65;10.48;;;;;;;;;;5034113;28;20026;-64
2022/11/25 04:36:07;;;;;;;17.80;10.45;;;;;;;;;;5033862;28;20367;-64
2022/11/25 04:38:33;;;;;;;23.02;11.77;;;;;;;;;;5031874;28;20029;-65
2022/11/25 04:40:59;;;;;;;25.08;11.80;;;;;;;;;;5014004;28;20030;-64
2022/11/25 04:43:25;;;;;;;21.90;11.57;;;;;;;;;;5013896;28;20116;-65
2022/11/25 04:45:51;;;;;;;24.58;12.27;;;;;;;;;;5012852;28;20025;-64
2022/11/25 04:48:17;;;;;;;19.58;11.43;;;;;;;;;;5012165;28;20486;-65
2022/11/25 04:50:44;;;;;;;24.67;13.65;;;;;;;;;;5013995;28;20470;-64
2022/11/25 04:53:10;;;;;;;23.58;12.10;;;;;;;;;;5017922;28;20029;-65
2022/11/25 04:55:36;;;;;;;21.60;12.30;;;;;;;;;;5033516;28;20035;-64
2022/11/25 04:58:03;;;;;;;20.75;12.90;;;;;;;;;;5033568;28;20040;-64
2022/11/25 05:00:29;;;;;;;21.40;13.90;;;;;;;;;;5033463;28;20386;-64
2022/11/25 05:02:55;;;;;;;22.33;12.75;;;;;;;;;;5033405;28;20021;-66
2022/11/25 05:05:21;;;;;;;21.70;14.45;;;;;;;;;;5032248;28;20033;-65
2022/11/25 05:07:47;;;;;;;23.27;19.42;;;;;;;;;;5033177;28;20071;-65
2022/11/25 05:10:13;;;;;;;22.58;20.20;;;;;;;;;;5032783;28;20107;-64
2022/11/25 05:12:40;;;;;;;27.67;20.30;;;;;;;;;;5032062;28;20033;-64
2022/11/25 05:15:06;;;;;;;26.55;19.10;;;;;;;;;;5031784;28;20025;-65
2022/11/25 05:17:32;;;;;;;24.25;19.83;;;;;;;;;;5033348;28;20489;-64
2022/11/25 05:19:58;;;;;;;23.40;20.05;;;;;;;;;;5032057;28;20032;-64
2022/11/25 05:22:26;;;;;;;27.52;20.60;;;;;;;;;;5033363;28;20432;-64
2022/11/25 05:24:52;;;;;;;23.40;20.13;;;;;;;;;;5032990;28;20025;-64
2022/11/25 05:27:18;;;;;;;24.98;20.38;;;;;;;;;;5032933;28;20440;-64
2022/11/25 05:29:44;;;;;;;28.65;20.38;;;;;;;;;;5033133;28;20044;-65
2022/11/25 05:32:11;;;;;;;26.50;19.88;;;;;;;;;;5032998;28;20029;-63
2022/11/25 05:34:37;;;;;;;25.27;19.42;;;;;;;;;;5032657;28;20092;-64
2022/11/25 05:37:03;;;;;;;26.52;20.17;;;;;;;;;;5032194;28;20026;-65
2022/11/25 05:39:29;;;;;;;31.10;22.75;;;;;;;;;;5011739;28;20026;-63
2022/11/25 05:41:55;;;;;;;27.45;20.42;;;;;;;;;;5011798;28;20029;-64
2022/11/25 05:44:22;;;;;;;34.30;22.77;;;;;;;;;;5011293;28;20034;-65
2022/11/25 05:46:48;;;;;;;26.60;22.55;;;;;;;;;;5012660;28;20040;-64
2022/11/25 05:49:14;;;;;;;33.67;21.30;;;;;;;;;;5039975;23;20034;-66
2022/11/25 05:51:40;;;;;;;31.30;21.70;;;;;;;;;;5010967;28;20117;-66
2022/11/25 05:54:07;;;;;;;24.25;19.45;;;;;;;;;;5010205;28;20052;-66
2022/11/25 05:56:32;;;;;;;24.48;20.48;;;;;;;;;;5011200;28;20030;-66
2022/11/25 05:58:59;;;;;;;30.75;21.40;;;;;;;;;;5011104;28;20026;-66
2022/11/25 06:01:25;;;;;;;31.73;20.60;;;;;;;;;;4993456;28;20071;-68
2022/11/25 06:03:51;;;;;;;26.35;18.92;;;;;;;;;;5010689;28;20466;-66
2022/11/25 06:06:17;;;;;;;23.75;18.42;;;;;;;;;;5010996;28;20047;-66
2022/11/25 06:08:43;;;;;;;22.55;17.23;;;;;;;;;;4992177;28;20050;-66
2022/11/25 06:11:11;;;;;;;23.08;18.02;;;;;;;;;;5010645;28;20026;-66
2022/11/25 06:13:37;;;;;;;30.02;18.27;;;;;;;;;;5010425;28;20441;-63
2022/11/25 06:16:07;;;;;;;22.15;16.38;;;;;;;;;;5005730;28;20627;-66
2022/11/25 06:18:33;;;;;;;25.05;16.20;;;;;;;;;;5008490;28;20470;-67
2022/11/25 06:20:59;;;;;;;25.10;16.20;;;;;;;;;;4998614;28;20029;-66
2022/11/25 06:23:26;;;;;;;23.80;15.57;;;;;;;;;;4990848;28;20348;-65
2022/11/25 06:25:52;;;;;;;23.60;16.75;;;;;;;;;;4991856;28;20479;-67
2022/11/25 06:28:18;;;;;;;27.00;16.60;;;;;;;;;;4990791;28;20026;-66
2022/11/25 06:30:44;;;;;;;20.17;15.73;;;;;;;;;;4990919;28;20022;-66
2022/11/25 06:33:10;;;;;;;23.00;16.45;;;;;;;;;;4997178;28;20426;-67
2022/11/25 06:35:36;;;;;;;27.77;17.23;;;;;;;;;;5010250;28;20022;-68
2022/11/25 06:38:03;;;;;;;23.60;16.40;;;;;;;;;;5009783;28;20076;-66
2022/11/25 06:40:29;;;;;;;22.83;15.05;;;;;;;;;;5010192;28;20101;-68
2022/11/25 06:42:55;;;;;;;23.35;15.38;;;;;;;;;;5009604;28;20065;-66
2022/11/25 06:45:21;;;;;;;26.13;15.13;;;;;;;;;;5009945;28;20030;-67
2022/11/25 06:47:47;;;;;;;23.67;15.68;;;;;;;;;;5008748;28;20121;-66
2022/11/25 06:50:13;;;;;;;24.13;16.02;;;;;;;;;;5003301;28;20034;-67
2022/11/25 06:52:38;;;;;;;22.38;15.98;;;;;;;;;;4990410;28;20022;-68
2022/11/25 06:55:05;;;;;;;22.70;15.40;;;;;;;;;;4988884;28;20030;-65
2022/11/25 06:57:31;;;;;;;24.83;15.50;;;;;;;;;;4990819;28;20030;-66
2022/11/25 06:59:57;;;;;;;24.35;14.82;;;;;;;;;;4990332;28;20546;-65
2022/11/25 07:02:23;;;;;;;22.27;16.15;;;;;;;;;;4992947;28;20050;-64
2022/11/25 07:04:49;;;;;;;23.58;14.88;;;;;;;;;;4994317;28;20475;-63
2022/11/25 07:07:15;;;;;;;20.73;14.77;;;;;;;;;;4993452;28;20507;-67
2022/11/25 07:09:41;;;;;;;20.77;14.40;;;;;;;;;;5013467;28;20101;-66
2022/11/25 07:12:07;;;;;;;23.55;15.15;;;;;;;;;;5013394;28;20026;-67
2022/11/25 07:14:33;;;;;;;22.17;15.20;;;;;;;;;;5013550;28;20077;-65
2022/11/25 07:16:59;;;;;;;24.90;14.55;;;;;;;;;;5013460;28;20583;-65
2022/11/25 07:19:25;;;;;;;31.63;14.18;;;;;;;;;;5012907;28;20144;-66
2022/11/25 07:21:51;;;;;;;25.05;14.60;;;;;;;;;;5012288;28;20026;-65
2022/11/25 07:24:17;;;;;;;25.33;16.02;;;;;;;;;;5013056;28;20022;-65
2022/11/25 07:26:44;;;;;;;24.48;15.70;;;;;;;;;;5011900;28;20040;-67
2022/11/25 07:29:12;;;;;;;25.73;15.43;;;;;;;;;;5013007;28;20518;-68
2022/11/25 07:31:39;;;;;;;26.83;14.57;;;;;;;;;;5013561;28;20057;-67
2022/11/25 07:34:06;;;;;;;24.63;14.98;;;;;;;;;;5013312;28;20030;-68
2022/11/25 07:36:33;;;;;;;25.50;15.45;;;;;;;;;;5012142;28;20033;-66
2022/11/25 07:39:00;;;;;;;22.73;14.60;;;;;;;;;;5012929;28;20026;-69
2022/11/25 07:41:27;;;;;;;20.10;14.38;;;;;;;;;;5011900;28;20033;-65
2022/11/25 07:43:54;;;;;;;25.67;14.73;;;;;;;;;;5012752;28;20056;-67
2022/11/25 07:46:20;;;;;;;24.27;14.85;;;;;;;;;;5011868;28;20040;-68
2022/11/25 07:48:47;;;;;;;22.50;14.88;;;;;;;;;;5011812;28;20034;-67
2022/11/25 07:51:17;;;;;;;25.17;14.05;;;;;;;;;;5013033;28;20045;-66
2022/11/25 07:53:43;;;;;;;22.98;16.42;;;;;;;;;;5012999;28;20054;-66
2022/11/25 07:56:09;;;;;;;23.33;14.63;;;;;;;;;;5013141;28;20038;-66
2022/11/25 07:58:35;;;;;;;19.73;12.43;;;;;;;;;;5011615;28;20030;-64
2022/11/25 08:01:02;;;;;;;22.15;14.43;;;;;;;;;;5011502;28;20025;-67
2022/11/25 08:03:28;;;;;;;23.15;13.35;;;;;;;;;;5012697;28;20028;-66
2022/11/25 08:05:54;;;;;;;24.23;12.98;;;;;;;;;;5012911;28;20058;-68
2022/11/25 08:08:20;;;;;;;20.60;12.93;;;;;;;;;;5005244;28;20502;-66
2022/11/25 08:10:46;;;;;;;20.90;13.43;;;;;;;;;;4992895;28;20065;-66
2022/11/25 08:13:13;;;;;;;26.10;12.57;;;;;;;;;;4993696;28;20022;-66
2022/11/25 08:15:39;;;;;;;19.85;12.75;;;;;;;;;;4993412;28;20030;-66
2022/11/25 08:18:05;;;;;;;22.40;12.20;;;;;;;;;;5000207;28;20155;-66
2022/11/25 08:20:31;;;;;;;24.85;13.50;;;;;;;;;;5012517;28;20427;-60
2022/11/25 08:22:57;;;;;;;23.63;12.48;;;;;;;;;;5011139;28;20429;-60
2022/11/25 08:25:25;;;;;;;25.58;12.15;;;;;;;;;;5012172;28;20025;-60
2022/11/25 08:27:51;;;;;;;22.75;12.48;;;;;;;;;;5012307;28;20029;-60
2022/11/25 08:30:20;;;;;;;23.00;12.13;;;;;;;;;;5012127;28;20030;-61
2022/11/25 08:32:46;;;;;;;23.77;11.73;;;;;;;;;;5012338;28;20116;-56
2022/11/25 08:35:12;;;;;;;22.85;11.88;;;;;;;;;;5010890;28;20507;-62
2022/11/25 08:37:38;;;;;;;24.52;11.60;;;;;;;;;;5010553;28;20026;-62
2022/11/25 08:40:04;;;;;;;22.13;11.65;;;;;;;;;;5011932;28;20032;-63
2022/11/25 08:42:30;;;;;;;18.55;11.10;;;;;;;;;;5012142;28;20018;-65
2022/11/25 08:44:56;;;;;;;24.15;11.18;;;;;;;;;;5011775;28;20044;-62
2022/11/25 08:47:23;;;;;;;25.67;11.13;;;;;;;;;;5012054;28;20037;-62
2022/11/25 08:49:52;;;;;;;20.67;10.70;;;;;;;;;;5011635;28;20529;-62
2022/11/25 08:52:19;;;;;;;20.90;10.57;;;;;;;;;;5011354;28;20022;-60
2022/11/25 08:54:45;;;;;;;21.45;11.15;;;;;;;;;;5011403;28;20073;-62
2022/11/25 08:57:11;;;;;;;19.08;10.57;;;;;;;;;;5011726;28;20022;-62
2022/11/25 08:59:37;;;;;;;20.95;11.40;;;;;;;;;;5011408;28;20018;-66
2022/11/25 09:02:05;;;;;;;21.23;11.27;;;;;;;;;;5011736;28;20351;-68
2022/11/25 09:04:31;;;;;;;20.73;11.38;;;;;;;;;;5010106;28;20105;-67
2022/11/25 09:06:57;;;;;;;27.38;13.73;;;;;;;;;;5011333;28;20744;-67
2022/11/25 09:09:23;;;;;;;18.42;11.60;;;;;;;;;;5015999;28;20048;-68
2022/11/25 09:11:49;;;;;;;20.13;11.52;;;;;;;;;;5012998;28;20025;-68
2022/11/25 09:14:15;;;;;;;20.38;11.18;;;;;;;;;;5012131;28;20077;-66
2022/11/25 09:16:42;;;;;;;18.50;9.70;;;;;;;;;;5011383;28;20061;-67
2022/11/25 09:19:08;;;;;;;20.55;10.98;;;;;;;;;;5003024;28;20022;-67
2022/11/25 09:21:34;;;;;;;23.50;10.70;;;;;;;;;;4991422;28;20054;-67
2022/11/25 09:24:01;;;;;;;22.55;11.52;;;;;;;;;;4990016;28;20050;-66
2022/11/25 09:26:28;;;;;;;18.90;10.60;;;;;;;;;;4992236;28;20491;-67
2022/11/25 09:28:55;;;;;;;23.08;11.15;;;;;;;;;;4991658;28;20944;-67
2022/11/25 09:31:21;;;;;;;21.20;11.18;;;;;;;;;;4991689;28;20076;-68
2022/11/25 09:33:47;;;;;;;20.50;11.00;;;;;;;;;;4991486;28;20034;-66
2022/11/25 09:36:14;;;;;;;18.95;10.88;;;;;;;;;;4991565;28;20030;-66
2022/11/25 09:38:43;;;;;;;16.92;10.13;;;;;;;;;;4992349;28;20470;-68
2022/11/25 09:41:09;;;;;;;;;;;;;;;;;;4991624;28;20035;-68
2022/11/25 09:46:55;;;;;;;20.48;11.15;;;;;;;;;;5011040;28;20064;-67
2022/11/25 09:49:22;;;;;;;20.30;11.88;;;;;;;;;;5010731;28;20078;-66
2022/11/25 09:52:08;;;;;;;25.25;12.77;;;;;;;;;;5010901;28;20036;-67
2022/11/25 09:54:36;;;;;;;20.17;10.98;;;;;;;;;;5010745;28;20033;-66
2022/11/25 09:57:23;;;;;;;19.38;11.70;;;;;;;;;;5009562;28;20474;-66
2022/11/25 09:59:49;;;;;;;22.15;12.75;;;;;;;;;;5010751;28;20021;-67
2022/11/25 10:02:27;;;;;;;19.75;11.40;;;;;;;;;;5010898;28;20107;-68
2022/11/25 10:04:58;;;;;;;20.63;11.40;;;;;;;;;;5010380;28;20026;-67
2022/11/25 10:07:32;;;;;;;20.88;12.30;;;;;;;;;;5010813;28;20034;-67
2022/11/25 10:09:59;;;;;;;24.88;12.55;;;;;;;;;;5008715;28;20022;-67
2022/11/25 10:12:29;;;;;;;24.67;11.82;;;;;;;;;;5010676;28;20025;-66
2022/11/25 10:15:07;;;;;;;23.75;12.70;;;;;;;;;;5010427;28;20022;-65
2022/11/25 10:17:37;;;;;;;27.08;12.45;;;;;;;;;;5010584;28;20029;-66
2022/11/25 10:20:17;;;;;;;22.10;12.27;;;;;;;;;;5010589;28;20022;-67
2022/11/25 10:22:45;;;;;;;21.02;11.02;;;;;;;;;;5010367;28;20072;-65
2022/11/25 10:25:14;;;;;;;23.80;11.88;;;;;;;;;;4991725;28;20117;-67
2022/11/25 10:27:43;;;;;;;21.85;11.95;;;;;;;;;;4989553;28;20084;-67
2022/11/25 10:30:13;;;;;;;21.75;11.95;;;;;;;;;;4989471;28;20037;-67
2022/11/25 10:33:03;;;;;;;21.05;11.32;;;;;;;;;;4989860;28;20076;-68
2022/11/25 10:35:38;;;;;;;22.92;11.48;;;;;;;;;;5011205;28;20092;-66
2022/11/25 10:38:06;;;;;;;20.13;12.00;;;;;;;;;;5014456;28;20033;-67
2022/11/25 10:40:32;;;;;;;22.40;12.45;;;;;;;;;;5013055;28;20030;-71
2022/11/25 10:43:01;;;;;;;21.83;11.43;;;;;;;;;;5013875;28;20026;-68
2022/11/25 10:45:35;;;;;;;23.23;12.75;;;;;;;;;;5014286;28;20108;-69
2022/11/25 10:48:14;;;;;;;23.92;11.70;;;;;;;;;;5014339;28;20029;-69
2022/11/25 10:50:55;;;;;;;21.70;11.80;;;;;;;;;;5014036;28;20452;-67
2022/11/25 10:53:24;;;;;;;21.38;12.25;;;;;;;;;;5013803;28;20025;-67
2022/11/25 10:56:00;;;;;;;20.50;11.18;;;;;;;;;;5013798;28;20540;-64
2022/11/25 10:58:28;;;;;;;23.73;11.63;;;;;;;;;;5014722;28;20056;-64
2022/11/25 11:01:13;;;;;;;19.05;10.80;;;;;;;;;;5012997;28;20705;-66
2022/11/25 11:03:40;;;;;;;23.85;11.85;;;;;;;;;;5013033;28;20048;-67
2022/11/25 11:06:06;;;;;;;19.25;10.68;;;;;;;;;;4994145;28;20518;-66
2022/11/25 11:08:38;;;;;;;17.98;10.38;;;;;;;;;;4992909;28;20155;-67
2022/11/25 11:11:10;;;;;;;18.60;11.35;;;;;;;;;;4994083;28;20053;-65
2022/11/25 11:13:36;;;;;;;20.27;10.80;;;;;;;;;;4993967;28;20037;-64
2022/11/25 11:16:02;;;;;;;20.75;11.13;;;;;;;;;;4656074;28;10000419;-67
2022/11/25 11:18:38;;;;;;;21.92;10.55;;;;;;;;;;5010405;28;20079;-67
2022/11/25 11:21:05;;;;;;;20.13;11.85;;;;;;;;;;5010796;28;20022;-66
2022/11/25 11:23:46;;;;;;;21.10;11.38;;;;;;;;;;5010511;28;20473;-67
2022/11/25 11:26:21;;;;;;;19.02;10.75;;;;;;;;;;5010713;28;20062;-66
2022/11/25 11:28:47;;;;;;;20.48;9.38;;;;;;;;;;5010774;28;20025;-65
2022/11/25 11:31:19;;;;;;;22.85;10.50;;;;;;;;;;5010630;28;20770;-67
2022/11/25 11:33:48;;;;;;;19.50;9.95;;;;;;;;;;5004417;28;20458;-67
2022/11/25 11:36:33;;;;;;;19.05;10.30;;;;;;;;;;4991193;28;20034;-67
2022/11/25 11:39:18;;;;;;;16.50;9.10;;;;;;;;;;4990801;28;20046;-68
2022/11/25 11:41:49;;;;;;;22.33;10.80;;;;;;;;;;4991086;28;20350;-69
2022/11/25 11:44:25;;;;;;;19.73;9.88;;;;;;;;;;4994834;28;20034;-67
2022/11/25 11:47:09;;;;;;;17.05;10.60;;;;;;;;;;4995486;28;20125;-67
2022/11/25 11:49:47;;;;;;;16.70;10.15;;;;;;;;;;5019798;23;20209;-64
2022/11/25 11:52:16;;;;;;;20.25;10.40;;;;;;;;;;5011807;28;20034;-66
2022/11/25 11:54:46;;;;;;;17.05;9.95;;;;;;;;;;5010057;28;20026;-63
2022/11/25 11:57:18;;;;;;;19.33;9.82;;;;;;;;;;5010969;28;20107;-64
2022/11/25 11:59:50;;;;;;;20.48;10.77;;;;;;;;;;5012756;28;20104;-65
2022/11/25 12:02:16;;;;;;;20.95;10.55;;;;;;;;;;5011219;28;20022;-64
2022/11/25 12:04:51;;;;;;;16.88;9.88;;;;;;;;;;5010689;28;20029;-64
2022/11/25 12:07:17;;;;;;;18.20;10.48;;;;;;;;;;5011206;28;20562;-66
2022/11/25 12:09:53;;;;;;;17.48;10.48;;;;;;;;;;5010444;28;20044;-66
2022/11/25 12:12:20;;;;;;;21.90;10.80;;;;;;;;;;5012069;28;20026;-66
2022/11/25 12:14:49;;;;;;;19.95;10.15;;;;;;;;;;5011590;28;20108;-65
2022/11/25 12:17:22;;;;;;;18.95;9.40;;;;;;;;;;5011663;28;20029;-68
2022/11/25 12:20:11;;;;;;;19.40;10.70;;;;;;;;;;5010123;28;20041;-65
2022/11/25 12:22:42;;;;;;;20.63;10.60;;;;;;;;;;5010373;28;20069;-66
2022/11/25 12:25:19;;;;;;;20.20;10.38;;;;;;;;;;5011300;28;20133;-64
2022/11/25 12:27:54;;;;;;;22.55;10.40;;;;;;;;;;5009935;28;20038;-66
2022/11/25 12:30:22;;;;;;;19.45;11.73;;;;;;;;;;5011322;28;20034;-65
2022/11/25 12:32:52;;;;;;;19.17;10.20;;;;;;;;;;5013141;28;20399;-63
2022/11/25 12:35:30;;;;;;;18.80;11.02;;;;;;;;;;5013083;28;20034;-65
2022/11/25 12:37:56;;;;;;;;;;;;;;;;;;5013782;28;20080;-65
2022/11/25 12:40:52;;;;;;;20.38;10.60;;;;;;;;;;5011681;28;19950;-65
2022/11/25 12:43:25;;;;;;;19.00;10.95;;;;;;;;;;4997333;28;20034;-65
2022/11/25 12:45:59;;;;;;;22.02;10.30;;;;;;;;;;5012406;28;20069;-63
2022/11/25 12:48:25;;;;;;;20.35;10.27;;;;;;;;;;4665476;28;9999806;-65
2022/11/25 12:51:02;;;;;;;22.48;11.00;;;;;;;;;;5010897;28;20129;-66
2022/11/25 12:53:28;;;;;;;20.77;11.85;;;;;;;;;;5009514;28;20540;-65
2022/11/25 12:55:55;;;;;;;23.15;10.73;;;;;;;;;;5009365;28;20034;-66
2022/11/25 12:58:30;;;;;;;19.00;10.98;;;;;;;;;;5010742;28;20393;-66
2022/11/25 13:01:14;;;;;;;18.17;10.35;;;;;;;;;;5010647;28;20184;-66
2022/11/25 13:03:56;;;;;;;18.60;10.52;;;;;;;;;;5010882;28;20034;-65
2022/11/25 13:06:29;;;;;;;23.10;11.63;;;;;;;;;;5012077;28;20494;-64
2022/11/25 13:09:07;;;;;;;22.08;10.68;;;;;;;;;;5014067;28;20046;-65
2022/11/25 13:11:44;;;;;;;18.40;10.13;;;;;;;;;;5013372;28;20091;-65
2022/11/25 13:14:21;;;;;;;20.67;10.80;;;;;;;;;;5013538;28;20135;-65
2022/11/25 13:16:48;;;;;;;20.65;10.07;;;;;;;;;;5012974;28;20480;-66
2022/11/25 13:19:18;;;;;;;24.02;10.13;;;;;;;;;;5013196;28;20053;-65
2022/11/25 13:22:01;;;;;;;20.23;9.90;;;;;;;;;;5013527;28;20022;-62
2022/11/25 13:24:33;;;;;;;21.45;10.60;;;;;;;;;;5012744;28;20049;-64
2022/11/25 13:27:04;;;;;;;20.17;10.00;;;;;;;;;;5012082;28;20061;-65
2022/11/25 13:29:30;;;;;;;19.65;9.48;;;;;;;;;;5013088;28;20049;-65
2022/11/25 13:31:56;;;;;;;19.38;9.52;;;;;;;;;;5013337;28;20383;-66
2022/11/25 13:34:24;;;;;;;23.30;10.88;;;;;;;;;;5012726;28;20121;-66
2022/11/25 13:36:55;;;;;;;22.65;9.93;;;;;;;;;;5011023;28;20057;-66
2022/11/25 13:39:24;;;;;;;19.63;9.40;;;;;;;;;;5011584;28;20030;-65
2022/11/25 13:41:59;;;;;;;18.42;9.40;;;;;;;;;;5013195;28;20018;-65
2022/11/25 13:44:28;;;;;;;23.55;10.00;;;;;;;;;;5011993;28;20406;-66
2022/11/25 13:46:57;;;;;;;20.88;9.95;;;;;;;;;;5012650;28;20033;-67
2022/11/25 13:49:23;;;;;;;;;;;;;;;;;;5012912;28;20061;-65
2022/11/25 13:51:57;;;;;;;20.48;9.50;;;;;;;;;;5011348;28;19948;-65
2022/11/25 13:54:26;;;;;;;20.33;9.43;;;;;;;;;;5011873;28;20176;-66
2022/11/25 13:57:11;;;;;;;19.58;9.00;;;;;;;;;;5011921;28;20056;-66
2022/11/25 13:59:57;;;;;;;20.83;9.63;;;;;;;;;;5011562;28;20057;-65
2022/11/25 14:02:23;;;;;;;19.38;9.48;;;;;;;;;;5009801;28;20057;-66
2022/11/25 14:04:49;;;;;;;21.77;9.90;;;;;;;;;;5012169;28;20033;-65
2022/11/25 14:07:36;;;;;;;22.70;11.30;;;;;;;;;;5011971;28;20030;-67
2022/11/25 14:10:08;;;;;;;23.75;10.25;;;;;;;;;;5007951;28;20157;-66
2022/11/25 14:12:42;;;;;;;20.45;9.20;;;;;;;;;;5010874;28;20030;-64
2022/11/25 14:15:11;;;;;;;20.80;10.02;;;;;;;;;;5010604;28;20026;-67
2022/11/25 14:17:52;;;;;;;24.80;10.55;;;;;;;;;;5011437;28;20032;-65
2022/11/25 14:20:19;;;;;;;19.85;9.32;;;;;;;;;;5010630;28;20090;-65
2022/11/25 14:22:48;;;;;;;19.27;9.10;;;;;;;;;;5012141;28;20164;-66
2022/11/25 14:25:52;;;;;;;21.27;9.27;;;;;;;;;;5010579;28;20026;-66
2022/11/25 14:28:18;;;;;;;21.23;9.68;;;;;;;;;;4265527;28;10000503;-63
2022/11/25 14:30:51;;;;;;;18.60;9.63;;;;;;;;;;4948761;29;20034;-63
2022/11/25 14:33:20;;;;;;;19.52;9.43;;;;;;;;;;4962526;28;20061;-65
2022/11/25 14:35:49;;;;;;;23.23;10.75;;;;;;;;;;5008680;28;20524;-62